Time;durP1;ratioP1;P1;durP2;ratioP2;P2;SDS_P1;SDS_P2;PMS_P1;PMS_P2;Temp;Humidity;BMP_temperature;BMP_pressure;BME280_temperature;BME280_humidity;BME280_pressure;Samples;Min_cycle;Max_cycle;Signal;HPM_P1;HPM_P2
2021/05/16 00:01:38;;;;;;;14.93;8.78;;;;;;;13.93;70.13;100555.11;1737527;81;25679;-58
2021/05/16 00:04:05;;;;;;;17.82;8.55;;;;;;;13.86;69.52;100551.38;1749136;81;25620;-55
2021/05/16 00:06:32;;;;;;;24.50;8.25;;;;;;;13.88;69.21;100554.77;1760696;81;25779;-57
2021/05/16 00:08:58;;;;;;;20.15;7.50;;;;;;;13.95;69.33;100548.70;1765392;81;25479;-57
2021/05/16 00:11:25;;;;;;;14.90;6.97;;;;;;;14.01;69.36;100550.73;1763151;81;27410;-56
2021/05/16 00:13:52;;;;;;;17.32;6.15;;;;;;;14.12;70.01;100550.44;1692880;84;25772;-57
2021/05/16 00:16:19;;;;;;;11.18;5.85;;;;;;;14.15;69.24;100547.41;1698500;83;25542;-57
2021/05/16 00:18:46;;;;;;;13.35;6.00;;;;;;;14.20;68.97;100557.22;1697757;84;25765;-57
2021/05/16 00:21:13;;;;;;;14.15;5.67;;;;;;;14.26;69.06;100546.25;1702195;82;25613;-57
2021/05/16 00:23:40;;;;;;;10.58;5.95;;;;;;;14.28;69.38;100550.13;1701228;83;27382;-57
2021/05/16 00:26:08;;;;;;;11.03;6.60;;;;;;;14.29;68.83;100547.28;1687049;83;25630;-58
2021/05/16 00:28:35;;;;;;;11.48;5.12;;;;;;;14.33;69.67;100545.08;1728883;79;25578;-58
2021/05/16 00:31:02;;;;;;;10.95;5.70;;;;;;;14.27;70.06;100550.65;1757009;81;25767;-58
2021/05/16 00:33:29;;;;;;;10.35;5.20;;;;;;;14.19;69.20;100550.11;1762760;81;25691;-58
2021/05/16 00:35:56;;;;;;;12.03;6.10;;;;;;;14.22;69.99;100552.50;1765948;81;27415;-58
2021/05/16 00:38:23;;;;;;;20.15;5.62;;;;;;;14.22;69.70;100548.44;1760014;81;25746;-58
2021/05/16 00:40:50;;;;;;;11.55;5.47;;;;;;;14.27;69.38;100549.30;1762172;80;25592;-57
2021/05/16 00:43:17;;;;;;;14.35;5.92;;;;;;;14.35;69.47;100548.44;1717790;82;25762;-57
2021/05/16 00:45:47;;;;;;;11.73;5.53;;;;;;;14.40;69.44;100546.10;1758388;81;25507;-57
2021/05/16 00:48:14;;;;;;;11.03;5.78;;;;;;;14.39;68.81;100546.59;1753038;81;28183;-57
2021/05/16 00:50:46;;;;;;;9.75;5.00;;;;;;;14.43;68.84;100538.15;1763410;79;25718;-58
2021/05/16 00:53:22;;;;;;;18.55;6.58;;;;;;;14.40;68.30;100540.69;1763099;81;25721;-57
2021/05/16 00:55:50;;;;;;;9.80;4.92;;;;;;;14.40;68.12;100539.34;1739110;81;26851;-57
2021/05/16 00:58:18;;;;;;;13.93;5.37;;;;;;;14.39;67.98;100534.94;1739336;81;25830;-56
2021/05/16 01:00:46;;;;;;;15.72;5.15;;;;;;;14.32;67.72;100543.38;1699900;84;27290;-58
2021/05/16 01:03:15;;;;;;;12.73;5.80;;;;;;;14.23;68.46;100537.96;1761527;80;25584;-58
2021/05/16 01:05:44;;;;;;;14.98;5.92;;;;;;;14.09;68.41;100534.53;1758927;81;25556;-57
2021/05/16 01:08:12;;;;;;;10.75;5.42;;;;;;;14.06;68.45;100537.58;1693447;84;25815;-58
2021/05/16 01:10:41;;;;;;;13.28;5.53;;;;;;;14.02;68.51;100533.01;1693498;84;25558;-57
2021/05/16 01:13:11;;;;;;;8.95;5.40;;;;;;;13.99;68.44;100535.17;1693393;84;27494;-57
2021/05/16 01:15:42;;;;;;;10.53;5.15;;;;;;;13.97;68.55;100533.16;1693387;84;25544;-57
2021/05/16 01:18:10;;;;;;;10.95;4.67;;;;;;;13.96;69.08;100536.88;1758964;81;25800;-57
2021/05/16 01:20:41;;;;;;;10.75;5.55;;;;;;;13.89;69.90;100532.61;1693386;84;25775;-58
2021/05/16 01:23:13;;;;;;;9.85;5.15;;;;;;;13.82;69.53;100528.36;1693492;84;25574;-57
2021/05/16 01:25:45;;;;;;;11.40;5.40;;;;;;;13.83;69.73;100525.17;1693300;84;27568;-58
2021/05/16 01:28:16;;;;;;;10.45;5.35;;;;;;;13.84;69.77;100527.70;1760088;80;25606;-57
2021/05/16 01:30:45;;;;;;;15.83;5.25;;;;;;;13.82;69.52;100525.66;1760263;81;26389;-57
2021/05/16 01:33:14;;;;;;;8.93;4.58;;;;;;;13.83;69.68;100533.28;1759981;81;25733;-56
2021/05/16 01:35:41;;;;;;;10.58;4.75;;;;;;;13.77;69.79;100530.72;1759785;81;25561;-57
2021/05/16 01:38:11;;;;;;;9.10;4.47;;;;;;;13.75;70.24;100532.25;1759605;80;27463;-57
2021/05/16 01:40:40;;;;;;;7.75;4.70;;;;;;;13.72;70.17;100533.91;1759478;80;25577;-57
2021/05/16 01:43:14;;;;;;;12.18;4.92;;;;;;;13.76;70.13;100533.08;1756735;81;25644;-58
2021/05/16 01:45:42;;;;;;;9.30;4.53;;;;;;;13.76;69.73;100534.43;1758786;80;26364;-57
2021/05/16 01:48:10;;;;;;;9.68;4.30;;;;;;;13.76;69.56;100540.67;1739027;81;25587;-57
2021/05/16 01:50:40;;;;;;;16.62;4.30;;;;;;;13.80;69.83;100540.36;1756550;80;27376;-57
2021/05/16 01:53:09;;;;;;;13.95;4.65;;;;;;;13.82;69.91;100543.75;1693299;84;25674;-57
2021/05/16 01:55:37;;;;;;;12.58;5.55;;;;;;;13.82;69.68;100548.64;1701437;83;26239;-57
2021/05/16 01:58:07;;;;;;;7.70;4.55;;;;;;;13.82;69.56;100542.40;1721429;81;25741;-56
2021/05/16 02:00:39;;;;;;;8.55;4.12;;;;;;;13.80;69.48;100549.81;1689728;82;25737;-56
2021/05/16 02:03:08;;;;;;;11.65;3.92;;;;;;;13.75;69.37;100541.70;1750468;81;27751;-58
2021/05/16 02:05:38;;;;;;;6.62;3.83;;;;;;;13.73;69.34;100545.56;1770531;80;25763;-58
2021/05/16 02:08:06;;;;;;;7.10;3.70;;;;;;;13.67;69.67;100545.70;1770407;80;25665;-58
2021/05/16 02:10:34;;;;;;;6.12;3.02;;;;;;;13.57;69.21;100547.19;1774399;80;25737;-56
2021/05/16 02:13:03;;;;;;;9.03;3.35;;;;;;;13.49;69.96;100552.55;1768523;81;25707;-57
2021/05/16 02:15:31;;;;;;;12.47;4.03;;;;;;;13.43;70.76;100551.85;1770352;81;27408;-57
2021/05/16 02:18:00;;;;;;;9.13;4.20;;;;;;;13.37;70.10;100553.30;1756394;81;25674;-58
2021/05/16 02:20:29;;;;;;;9.70;3.60;;;;;;;13.37;69.98;100549.73;1739740;82;25588;-58
2021/05/16 02:22:57;;;;;;;11.60;3.87;;;;;;;13.39;70.10;100558.57;1753200;81;26298;-57
2021/05/16 02:25:24;;;;;;;5.17;3.35;;;;;;;13.36;69.76;100548.91;1765857;80;25400;-58
2021/05/16 02:27:56;;;;;;;7.20;3.37;;;;;;;13.31;69.64;100553.44;1746176;81;27414;-58
2021/05/16 02:30:23;;;;;;;10.88;3.30;;;;;;;13.29;69.44;100562.72;1735155;81;25567;-58
2021/05/16 02:32:50;;;;;;;5.83;3.37;;;;;;;13.27;69.76;100561.50;1726037;81;25624;-57
2021/05/16 02:35:18;;;;;;;6.10;3.12;;;;;;;13.16;69.37;100561.78;1700781;81;25776;-57
2021/05/16 02:37:46;;;;;;;6.42;3.52;;;;;;;13.15;70.25;100561.44;1747978;81;25693;-57
2021/05/16 02:40:15;;;;;;;5.90;3.50;;;;;;;13.11;69.85;100567.66;1753422;81;27449;-58
2021/05/16 02:42:43;;;;;;;6.53;2.85;;;;;;;13.09;70.46;100563.40;1754385;81;25830;-57
2021/05/16 02:45:14;;;;;;;9.93;3.60;;;;;;;13.07;70.13;100563.56;1725880;81;25562;-57
2021/05/16 02:47:41;;;;;;;4.80;2.90;;;;;;;13.09;70.29;100562.05;1741082;81;25785;-56
2021/05/16 02:50:11;;;;;;;6.28;3.58;;;;;;;13.11;70.42;100559.56;1765077;80;25641;-57
2021/05/16 02:52:52;;;;;;;7.12;3.50;;;;;;;13.13;70.25;100562.92;1658488;82;28147;-57
2021/05/16 02:55:22;;;;;;;5.05;2.90;;;;;;;13.19;70.22;100560.61;1748022;81;25572;-57
2021/05/16 02:57:49;;;;;;;5.28;2.58;;;;;;;13.22;70.02;100556.26;1755119;81;25608;-56
2021/05/16 03:00:20;;;;;;;5.22;2.62;;;;;;;13.26;70.01;100556.27;1752799;81;25811;-57
2021/05/16 03:02:47;;;;;;;8.43;3.25;;;;;;;13.30;70.03;100558.48;1747054;81;25808;-57
2021/05/16 03:05:15;;;;;;;7.10;2.70;;;;;;;13.32;69.95;100561.02;1753206;81;27414;-57
2021/05/16 03:07:43;;;;;;;9.45;3.12;;;;;;;13.30;69.84;100557.14;1754918;81;25723;-57
2021/05/16 03:10:11;;;;;;;4.47;2.60;;;;;;;13.29;69.91;100563.55;1754971;81;25668;-57
2021/05/16 03:12:39;;;;;;;6.83;2.58;;;;;;;13.36;70.15;100562.41;1734763;81;25819;-58
2021/05/16 03:15:09;;;;;;;7.62;2.58;;;;;;;13.41;70.06;100566.85;1668002;84;25642;-57
2021/05/16 03:17:36;;;;;;;5.22;2.50;;;;;;;13.49;70.08;100567.93;1746412;81;27402;-57
2021/05/16 03:20:05;;;;;;;5.35;2.47;;;;;;;13.57;70.11;100562.57;1754924;81;25663;-56
2021/05/16 03:22:33;;;;;;;6.08;2.33;;;;;;;13.57;70.13;100571.52;1719775;82;25526;-57
2021/05/16 03:25:00;;;;;;;5.42;2.58;;;;;;;13.61;70.20;100565.27;1721731;81;25766;-57
2021/05/16 03:27:27;;;;;;;7.30;2.50;;;;;;;13.61;69.85;100564.79;1683406;84;25718;-57
2021/05/16 03:29:54;;;;;;;8.23;2.90;;;;;;;13.65;69.98;100566.66;1786507;80;27416;-57
2021/05/16 03:32:22;;;;;;;6.15;2.30;;;;;;;13.72;70.18;100571.76;1689973;83;25613;-56
2021/05/16 03:34:49;;;;;;;22.30;2.75;;;;;;;13.79;69.96;100570.61;1690436;83;25630;-57
2021/05/16 03:37:17;;;;;;;2.90;2.17;;;;;;;13.87;69.93;100575.19;1690778;83;25800;-57
2021/05/16 03:39:44;;;;;;;7.47;5.20;;;;;;;13.92;69.71;100567.45;1676440;85;25410;-57
2021/05/16 03:42:11;;;;;;;12.00;3.30;;;;;;;14.00;69.67;100572.02;1739513;82;27420;-58
2021/05/16 03:44:38;;;;;;;5.17;2.30;;;;;;;14.09;69.51;100577.31;1740166;82;25779;-58
2021/05/16 03:47:05;;;;;;;5.08;2.30;;;;;;;14.16;69.28;100578.00;1740276;82;25636;-58
2021/05/16 03:49:34;;;;;;;3.58;2.10;;;;;;;14.19;69.12;100580.39;1741322;81;29390;-58
2021/05/16 03:52:00;;;;;;;5.15;1.90;;;;;;;14.24;68.89;100573.97;1755531;81;25889;-58
2021/05/16 03:54:27;;;;;;;8.20;2.45;;;;;;;14.25;68.66;100579.20;1755318;81;28146;-57
2021/05/16 03:56:54;;;;;;;2.98;2.10;;;;;;;14.27;68.63;100577.70;1755354;81;25608;-58
2021/05/16 03:59:22;;;;;;;3.72;2.12;;;;;;;14.30;68.67;100581.94;1755381;81;25539;-57
2021/05/16 04:01:50;;;;;;;4.30;2.33;;;;;;;14.33;68.59;100581.09;1755480;81;26335;-58
2021/05/16 04:04:17;;;;;;;5.65;2.50;;;;;;;14.37;68.48;100583.82;1755339;81;25712;-58
2021/05/16 04:06:44;;;;;;;8.63;2.40;;;;;;;14.40;68.34;100579.93;1755238;81;27428;-58
2021/05/16 04:09:11;;;;;;;8.90;2.95;;;;;;;14.42;68.28;100572.50;1755239;81;25570;-58
2021/05/16 04:11:38;;;;;;;4.40;2.25;;;;;;;14.44;68.24;100570.97;1755434;81;25581;-58
2021/05/16 04:14:05;;;;;;;9.00;2.40;;;;;;;14.46;68.22;100577.07;1755364;81;25686;-58
2021/05/16 04:16:32;;;;;;;3.22;2.22;;;;;;;14.49;68.26;100580.77;1755397;81;25759;-57
2021/05/16 04:18:59;;;;;;;10.43;2.52;;;;;;;14.53;68.35;100580.27;1755411;81;27468;-58
2021/05/16 04:21:26;;;;;;;12.20;2.55;;;;;;;14.59;68.43;100576.06;1755186;81;26370;-56
2021/05/16 04:23:53;;;;;;;7.22;2.83;;;;;;;14.66;68.38;100574.89;1755385;81;25653;-57
2021/05/16 04:26:20;;;;;;;6.95;2.25;;;;;;;14.73;68.41;100581.88;1755360;81;26351;-57
2021/05/16 04:28:47;;;;;;;5.62;2.10;;;;;;;14.81;68.44;100585.41;1755486;81;25487;-56
2021/05/16 04:31:14;;;;;;;7.67;2.27;;;;;;;14.87;68.21;100585.25;1759119;81;27351;-57
2021/05/16 04:33:41;;;;;;;9.63;2.65;;;;;;;14.95;68.20;100582.53;1767221;80;25843;-57
2021/05/16 04:36:09;;;;;;;8.20;2.42;;;;;;;15.06;68.11;100583.22;1756752;81;25708;-57
2021/05/16 04:38:35;;;;;;;10.95;4.42;;;;;;;15.15;67.83;100578.12;1745520;82;25793;-58
2021/05/16 04:41:05;;;;;;;9.03;2.80;;;;;;;15.24;67.83;100578.45;1683466;85;25605;-57
2021/05/16 04:43:32;;;;;;;8.08;2.30;;;;;;;15.33;67.71;100571.14;1711934;83;27380;-57
2021/05/16 04:45:59;;;;;;;13.03;3.85;;;;;;;15.44;67.60;100571.31;1683381;85;25696;-58
2021/05/16 04:48:26;;;;;;;6.20;2.83;;;;;;;15.55;67.46;100568.73;1683210;85;25532;-57
2021/05/16 04:50:53;;;;;;;8.28;4.72;;;;;;;15.66;67.35;100568.37;1696362;83;25764;-58
2021/05/16 04:53:20;;;;;;;11.50;3.00;;;;;;;15.77;67.05;100561.70;1710037;83;25636;-60
2021/05/16 04:55:47;;;;;;;7.22;3.52;;;;;;;15.83;66.65;100566.42;1709993;83;27838;-58
2021/05/16 04:58:17;;;;;;;16.48;3.47;;;;;;;15.89;66.33;100567.13;1709884;83;25712;-59
2021/05/16 05:00:45;;;;;;;10.70;3.40;;;;;;;15.95;66.17;100564.22;1681496;85;25689;-59
2021/05/16 05:03:15;;;;;;;8.18;3.55;;;;;;;16.07;66.02;100556.53;1711982;83;25849;-58
2021/05/16 05:05:44;;;;;;;13.43;3.62;;;;;;;16.18;65.96;100557.46;1712274;83;25593;-58
2021/05/16 05:08:11;;;;;;;11.93;3.08;;;;;;;16.28;65.73;100551.30;1708104;83;27432;-57
2021/05/16 05:10:38;;;;;;;11.20;3.75;;;;;;;16.43;65.65;100556.80;1682597;84;25972;-57
2021/05/16 05:13:05;;;;;;;12.33;3.50;;;;;;;16.57;65.24;100556.54;1702788;84;25589;-57
2021/05/16 05:15:33;;;;;;;10.95;3.95;;;;;;;16.72;64.96;100555.24;1702579;84;25781;-56
2021/05/16 05:18:00;;;;;;;9.33;3.33;;;;;;;16.86;64.71;100558.17;1702736;84;25593;-57
2021/05/16 05:20:26;;;;;;;7.08;2.90;;;;;;;17.02;64.26;100560.80;1702537;84;27480;-57
2021/05/16 05:22:53;;;;;;;11.00;3.62;;;;;;;17.13;63.85;100555.42;1702636;84;25420;-57
2021/05/16 05:25:21;;;;;;;11.15;3.90;;;;;;;17.26;63.22;100558.03;1702613;84;25638;-57
2021/05/16 05:27:48;;;;;;;11.45;2.98;;;;;;;17.33;63.46;100557.09;1699972;83;26365;-57
2021/05/16 05:30:16;;;;;;;12.53;2.95;;;;;;;17.45;63.28;100566.98;1700389;84;25732;-57
2021/05/16 05:32:43;;;;;;;6.72;2.70;;;;;;;17.55;62.94;100567.22;1708432;82;27393;-57
2021/05/16 05:35:11;;;;;;;8.10;2.30;;;;;;;17.65;62.53;100571.88;1722754;82;25575;-56
2021/05/16 05:37:38;;;;;;;8.43;2.20;;;;;;;17.78;62.34;100572.06;1688381;84;25745;-57
2021/05/16 05:40:08;;;;;;;11.03;2.70;;;;;;;17.86;61.99;100567.55;1681673;85;25784;-57
2021/05/16 05:42:35;;;;;;;9.43;3.27;;;;;;;17.94;61.64;100562.00;1729710;82;25673;-57
2021/05/16 05:45:05;;;;;;;10.40;2.87;;;;;;;18.03;61.51;100560.89;1711749;83;27421;-57
2021/05/16 05:47:32;;;;;;;11.68;3.10;;;;;;;18.10;60.83;100559.62;1683248;85;25671;-57
2021/05/16 05:49:59;;;;;;;8.43;3.00;;;;;;;18.14;60.91;100556.33;1696051;82;25683;-57
2021/05/16 05:52:26;;;;;;;9.83;3.20;;;;;;;18.16;60.77;100554.77;1728263;82;26228;-57
2021/05/16 05:54:53;;;;;;;6.30;2.90;;;;;;;18.18;60.53;100558.64;1715349;82;25705;-57
2021/05/16 05:57:20;;;;;;;11.90;2.70;;;;;;;18.20;60.31;100561.49;1689228;84;27293;-57
2021/05/16 05:59:46;;;;;;;12.10;3.47;;;;;;;18.22;60.18;100561.33;1696405;84;25696;-57
2021/05/16 06:02:13;;;;;;;7.65;2.70;;;;;;;18.24;59.93;100566.89;1695520;84;25736;-57
2021/05/16 06:04:40;;;;;;;10.28;4.40;;;;;;;18.26;59.75;100560.75;1698872;84;25733;-57
2021/05/16 06:07:07;;;;;;;9.53;3.00;;;;;;;18.32;59.61;100548.75;1692558;83;25582;-59
2021/05/16 06:09:35;;;;;;;7.47;3.20;;;;;;;18.38;59.29;100556.13;1748500;81;27466;-58
2021/05/16 06:12:06;;;;;;;9.05;2.98;;;;;;;18.41;59.31;100553.90;1754169;81;25447;-59
2021/05/16 06:14:34;;;;;;;16.05;3.55;;;;;;;18.44;59.30;100550.77;1759719;81;25626;-57
2021/05/16 06:17:01;;;;;;;7.92;3.02;;;;;;;18.48;59.21;100551.22;1758765;81;25778;-57
2021/05/16 06:19:28;;;;;;;11.00;3.50;;;;;;;18.52;58.40;100542.14;1765899;80;25767;-57
2021/05/16 06:21:55;;;;;;;11.53;3.10;;;;;;;18.55;58.88;100549.93;1702654;84;27307;-57
2021/05/16 06:24:22;;;;;;;9.58;2.65;;;;;;;18.67;58.87;100552.97;1764691;81;25692;-58
2021/05/16 06:26:49;;;;;;;6.12;2.62;;;;;;;18.75;58.63;100541.44;1766093;80;25722;-58
2021/05/16 06:29:16;;;;;;;12.58;3.67;;;;;;;18.83;58.82;100542.33;1676019;83;26372;-58
2021/05/16 06:31:44;;;;;;;9.78;3.45;;;;;;;18.89;58.94;100536.95;1752940;81;25785;-58
2021/05/16 06:34:11;;;;;;;10.20;3.90;;;;;;;18.96;58.96;100541.63;1752440;81;27419;-58
2021/05/16 06:36:40;;;;;;;12.47;2.95;;;;;;;19.02;59.17;100532.15;1680791;84;25709;-58
2021/05/16 06:39:08;;;;;;;6.72;2.77;;;;;;;19.09;58.95;100541.75;1735187;81;26293;-58
2021/05/16 06:41:35;;;;;;;14.33;2.70;;;;;;;19.18;58.75;100538.34;1740335;81;25816;-58
2021/05/16 06:44:06;;;;;;;11.18;2.87;;;;;;;19.30;58.22;100542.20;1703132;83;26113;-61
2021/05/16 06:46:33;;;;;;;8.38;3.20;;;;;;;19.45;58.21;100531.69;1707926;83;27380;-58
2021/05/16 06:49:00;;;;;;;11.22;3.33;;;;;;;19.66;58.11;100528.02;1694425;83;25672;-58
2021/05/16 06:51:27;;;;;;;9.68;2.92;;;;;;;19.84;57.44;100531.05;1694710;83;25334;-57
2021/05/16 06:53:53;;;;;;;14.33;3.22;;;;;;;20.08;56.77;100526.66;1694650;84;25835;-57
2021/05/16 06:56:20;;;;;;;9.38;2.45;;;;;;;20.32;56.76;100524.71;1674706;85;25386;-56
2021/05/16 06:58:48;;;;;;;10.80;2.50;;;;;;;20.62;56.59;100527.08;1674527;85;27515;-57
2021/05/16 07:01:17;;;;;;;12.25;2.60;;;;;;;20.90;55.92;100530.17;1729899;82;25680;-57
2021/05/16 07:03:44;;;;;;;8.80;2.62;;;;;;;21.13;54.28;100523.41;1729998;82;25569;-57
2021/05/16 07:06:11;;;;;;;5.80;2.65;;;;;;;21.26;53.71;100516.57;1729834;82;25586;-57
2021/05/16 07:08:38;;;;;;;6.55;2.12;;;;;;;21.41;53.98;100523.68;1729921;82;25594;-57
2021/05/16 07:11:06;;;;;;;11.12;2.77;;;;;;;21.52;53.98;100523.03;1729868;82;27407;-57
2021/05/16 07:13:33;;;;;;;32.80;4.08;;;;;;;21.59;53.10;100520.31;1729882;82;25488;-57
2021/05/16 07:16:00;;;;;;;7.15;2.35;;;;;;;21.68;53.39;100514.05;1729623;82;25937;-57
2021/05/16 07:18:27;;;;;;;7.28;2.60;;;;;;;21.78;52.94;100513.61;1729812;82;26766;-57
2021/05/16 07:20:54;;;;;;;9.43;2.83;;;;;;;21.89;52.41;100513.77;1729946;82;25698;-57
2021/05/16 07:23:21;;;;;;;9.53;2.35;;;;;;;21.98;52.12;100517.08;1729994;82;27319;-58
2021/05/16 07:25:48;;;;;;;15.35;3.15;;;;;;;22.07;51.68;100514.09;1729868;82;25744;-57
2021/05/16 07:28:16;;;;;;;17.57;2.65;;;;;;;22.12;51.49;100506.07;1785388;80;25673;-57
2021/05/16 07:30:43;;;;;;;10.38;2.55;;;;;;;22.17;50.65;100508.98;1723739;83;25783;-57
2021/05/16 07:33:10;;;;;;;10.13;2.10;;;;;;;22.22;50.80;100505.58;1731636;82;25320;-57
2021/05/16 07:35:38;;;;;;;8.03;2.42;;;;;;;22.35;50.86;100511.81;1693289;84;27392;-57
2021/05/16 07:38:04;;;;;;;11.50;2.75;;;;;;;22.49;50.95;100503.55;1724459;81;25605;-58
2021/05/16 07:40:31;;;;;;;7.75;2.60;;;;;;;22.65;50.79;100504.88;1762828;81;25458;-59
2021/05/16 07:42:58;;;;;;;32.28;3.20;;;;;;;22.83;49.93;100498.63;1762909;81;25651;-57
2021/05/16 07:45:26;;;;;;;19.32;3.58;;;;;;;22.93;49.39;100511.31;1762794;80;25595;-57
2021/05/16 07:47:53;;;;;;;8.70;2.47;;;;;;;23.01;48.69;100503.31;1763215;81;27004;-57
2021/05/16 07:50:20;;;;;;;12.40;3.08;;;;;;;23.08;48.89;100506.00;1753584;81;25579;-58
2021/05/16 07:52:47;;;;;;;16.87;3.45;;;;;;;23.16;48.14;100508.99;1739746;82;25256;-59
2021/05/16 07:55:14;;;;;;;8.50;2.30;;;;;;;23.21;48.57;100505.91;1739674;82;25800;-58
2021/05/16 07:57:41;;;;;;;11.68;2.45;;;;;;;23.32;48.70;100504.31;1699424;84;25694;-57
2021/05/16 08:00:11;;;;;;;5.67;2.50;;;;;;;23.47;47.98;100500.34;1739854;81;27372;-57
2021/05/16 08:02:43;;;;;;;17.98;3.22;;;;;;;23.51;47.79;100501.58;1729739;82;25613;-59
2021/05/16 08:05:13;;;;;;;8.60;3.00;;;;;;;23.55;47.79;100498.14;1739688;82;25620;-57
2021/05/16 08:07:40;;;;;;;7.42;2.52;;;;;;;23.57;47.49;100502.02;1728949;82;25755;-57
2021/05/16 08:10:10;;;;;;;9.95;3.00;;;;;;;23.60;46.50;100497.45;1739920;82;25560;-57
2021/05/16 08:12:38;;;;;;;14.23;3.98;;;;;;;23.63;46.71;100492.86;1739879;82;27468;-57
2021/05/16 08:15:07;;;;;;;8.73;2.60;;;;;;;23.76;46.23;100502.31;1739437;82;26199;-58
2021/05/16 08:17:34;;;;;;;8.33;3.30;;;;;;;23.90;45.79;100499.38;1739556;82;25408;-57
2021/05/16 08:20:05;;;;;;;6.25;2.75;;;;;;;24.10;45.69;100488.17;1739684;82;26452;-58
2021/05/16 08:22:32;;;;;;;9.73;2.02;;;;;;;24.33;45.46;100487.94;1739587;82;25636;-58
2021/05/16 08:24:59;;;;;;;13.32;2.80;;;;;;;24.48;44.27;100491.63;1739862;82;27467;-58
2021/05/16 08:27:26;;;;;;;5.78;2.20;;;;;;;24.54;43.77;100491.52;1754384;80;25577;-57
2021/05/16 08:29:53;;;;;;;8.70;1.92;;;;;;;24.69;42.27;100495.75;1765263;81;25418;-58
2021/05/16 08:32:20;;;;;;;9.75;2.60;;;;;;;24.78;42.33;100500.38;1765386;80;25769;-58
2021/05/16 08:34:47;;;;;;;10.88;2.75;;;;;;;24.86;40.74;100490.39;1765438;81;25543;-59
2021/05/16 08:37:14;;;;;;;17.12;2.25;;;;;;;24.92;41.42;100491.36;1753098;80;27824;-57
2021/05/16 08:39:42;;;;;;;10.82;2.27;;;;;;;25.07;41.15;100491.71;1745311;81;25698;-58
2021/05/16 08:42:10;;;;;;;10.40;2.30;;;;;;;25.27;40.06;100493.26;1683121;85;25559;-57
2021/05/16 08:44:37;;;;;;;6.53;1.52;;;;;;;25.51;38.82;100491.31;1745335;82;25749;-58
2021/05/16 08:47:08;;;;;;;6.15;1.70;;;;;;;25.68;37.53;100486.45;1711892;83;25629;-58
2021/05/16 08:49:36;;;;;;;5.67;1.85;;;;;;;25.85;38.41;100493.38;1749624;79;27389;-57
2021/05/16 08:52:04;;;;;;;9.73;2.20;;;;;;;26.05;37.40;100491.55;1753667;81;25637;-58
2021/05/16 08:54:31;;;;;;;6.20;2.10;;;;;;;26.14;36.17;100494.24;1722587;83;25632;-58
2021/05/16 08:56:58;;;;;;;10.18;2.22;;;;;;;26.24;36.29;100487.55;1723841;83;25752;-58
2021/05/16 08:59:27;;;;;;;9.45;1.85;;;;;;;26.44;35.13;100484.86;1794599;79;25569;-58
2021/05/16 09:01:57;;;;;;;7.83;1.60;;;;;;;26.54;34.17;100486.42;1794692;79;27378;-57
2021/05/16 09:04:33;;;;;;;9.03;1.80;;;;;;;26.57;34.88;100491.97;1753821;81;25616;-58
2021/05/16 09:06:58;;;;;;;6.62;1.87;;;;;;;26.65;34.58;100484.66;1723307;82;25625;-58
2021/05/16 09:09:36;;;;;;;4.95;1.90;;;;;;;26.64;34.74;100491.81;1723429;83;25756;-59
2021/05/16 09:12:05;;;;;;;14.05;2.65;;;;;;;26.68;34.29;100487.45;1723256;83;25640;-58
2021/05/16 09:14:54;;;;;;;3.92;1.57;;;;;;;26.75;34.26;100490.90;1794517;79;27469;-58
2021/05/16 09:17:27;;;;;;;9.20;2.45;;;;;;;26.76;33.66;100483.45;1718020;83;25713;-58
2021/05/16 09:19:59;;;;;;;8.18;1.82;;;;;;;26.62;33.15;100485.17;1794318;79;25517;-58
2021/05/16 09:22:43;;;;;;;1.20;0.80;;;;;;;26.66;32.09;100496.55;1794446;79;25458;-58
2021/05/16 09:25:21;;;;;;;3.80;0.70;;;;;;;26.72;31.01;100482.56;1794679;79;25914;-58
2021/05/16 09:27:57;;;;;;;2.17;0.90;;;;;;;26.88;29.03;100488.37;1709142;83;27414;-57
2021/05/16 09:30:27;;;;;;;3.80;0.82;;;;;;;26.99;28.13;100481.08;1748771;81;26313;-57
2021/05/16 09:33:08;;;;;;;12.82;2.22;;;;;;;27.03;28.08;100485.84;1772690;80;25604;-57
2021/05/16 09:35:50;;;;;;;3.83;1.02;;;;;;;27.12;28.79;100480.70;1773674;80;25829;-57
2021/05/16 09:38:20;;;;;;;6.70;0.95;;;;;;;27.21;27.97;100481.12;1750283;81;25934;-57
2021/05/16 09:40:56;;;;;;;7.17;1.77;;;;;;;27.37;27.69;100476.64;1750149;81;27337;-59
2021/05/16 09:43:31;;;;;;;31.30;2.00;;;;;;;27.47;27.18;100471.82;1743115;81;25430;-58
2021/05/16 09:46:05;;;;;;;6.50;1.32;;;;;;;27.55;25.22;100463.64;1740216;82;25574;-58
2021/05/16 09:48:43;;;;;;;4.45;1.70;;;;;;;27.82;24.66;100455.94;1740041;82;25774;-58
2021/05/16 09:51:27;;;;;;;6.15;1.10;;;;;;;28.26;24.86;100457.24;1740080;81;25557;-58
2021/05/16 09:54:08;;;;;;;;;;;;;;;28.77;23.55;100448.56;1742726;82;27412;-58
2021/05/16 09:56:44;;;;;;;1.75;0.95;;;;;;;29.24;24.03;100448.80;1739970;82;25632;-58
2021/05/16 09:59:13;;;;;;;6.47;1.32;;;;;;;29.47;23.06;100449.80;1740017;82;25745;-58
2021/05/16 10:01:41;;;;;;;4.87;0.98;;;;;;;29.76;23.39;100445.19;1739551;82;25661;-59
2021/05/16 10:04:08;;;;;;;4.10;1.32;;;;;;;30.11;22.59;100445.00;1739930;82;25646;-61
2021/05/16 10:06:42;;;;;;;5.95;0.85;;;;;;;30.01;22.78;100445.52;1717879;82;25925;-58
2021/05/16 10:09:08;;;;;;;9.63;1.25;;;;;;;29.70;22.30;100449.02;1739849;82;25630;-58
2021/05/16 10:11:38;;;;;;;6.37;0.88;;;;;;;29.42;22.17;100444.21;1739935;82;25517;-59
2021/05/16 10:14:19;;;;;;;3.52;0.70;;;;;;;29.53;22.26;100441.48;1718755;82;25724;-58
2021/05/16 10:16:50;;;;;;;3.75;0.70;;;;;;;29.83;22.06;100434.66;1740270;82;25623;-58
2021/05/16 10:19:21;;;;;;;3.05;0.70;;;;;;;30.24;21.95;100438.61;1739880;82;28044;-59
2021/05/16 10:22:04;;;;;;;6.55;1.45;;;;;;;30.52;22.94;100433.12;1739780;82;25623;-58
2021/05/16 10:24:49;;;;;;;1.72;0.60;;;;;;;30.72;22.95;100438.34;1718335;82;25648;-58
2021/05/16 10:27:33;;;;;;;2.75;0.90;;;;;;;30.52;21.46;100434.50;1757491;80;26635;-59
2021/05/16 10:30:09;;;;;;;3.67;1.10;;;;;;;30.42;21.48;100434.47;1781689;80;25655;-59
2021/05/16 10:32:50;;;;;;;2.65;0.88;;;;;;;30.32;21.91;100430.30;1721638;83;27452;-58
2021/05/16 10:35:18;;;;;;;3.72;0.80;;;;;;;30.25;21.00;100431.42;1658936;83;25615;-59
2021/05/16 10:37:53;;;;;;;6.50;1.00;;;;;;;29.97;20.80;100427.22;1761052;81;25624;-59
2021/05/16 10:40:30;;;;;;;6.22;1.62;;;;;;;29.83;21.92;100422.72;1767924;80;25767;-57
2021/05/16 10:43:24;;;;;;;2.77;1.77;;;;;;;29.85;22.46;100417.73;1767771;81;26192;-57
2021/05/16 10:45:51;;;;;;;14.95;2.62;;;;;;;29.83;22.65;100419.95;1767574;81;32812;-57
2021/05/16 10:48:28;;;;;;;1.32;0.53;;;;;;;30.46;20.28;100418.91;1767402;81;25643;-57
2021/05/16 10:50:57;;;;;;;1.27;0.60;;;;;;;31.10;18.90;100413.00;1781444;80;25652;-58
2021/05/16 10:53:35;;;;;;;7.62;0.72;;;;;;;31.30;18.39;100412.11;1791818;80;25682;-58
2021/05/16 10:56:24;;;;;;;3.02;0.80;;;;;;;31.82;18.35;100409.92;1751340;81;25370;-59
2021/05/16 10:58:55;;;;;;;4.05;0.70;;;;;;;32.48;17.88;100415.28;1771580;80;26271;-56
2021/05/16 11:01:37;;;;;;;2.80;0.80;;;;;;;32.78;17.77;100405.82;1781190;80;25592;-60
2021/05/16 11:04:06;;;;;;;5.15;0.98;;;;;;;32.89;17.54;100410.70;1739965;82;25394;-57
2021/05/16 11:06:46;;;;;;;3.67;0.70;;;;;;;33.58;17.65;100404.84;1739771;82;26309;-58
2021/05/16 11:09:14;;;;;;;8.18;0.53;;;;;;;34.18;16.59;100395.86;1740009;82;25763;-58
2021/05/16 11:11:52;;;;;;;3.52;0.40;;;;;;;34.82;15.97;100394.48;1740326;82;27294;-58
2021/05/16 11:14:33;;;;;;;2.52;0.50;;;;;;;35.31;15.38;100390.72;1743487;81;25808;-58
2021/05/16 11:17:04;;;;;;;6.25;0.42;;;;;;;35.44;15.57;100398.85;1759423;81;25307;-59
2021/05/16 11:19:34;;;;;;;4.53;0.40;;;;;;;35.98;14.30;100392.60;1770457;81;26531;-58
2021/05/16 11:22:18;;;;;;;2.55;0.78;;;;;;;36.36;14.19;100385.17;1770593;81;25315;-58
2021/05/16 11:24:50;;;;;;;2.27;0.60;;;;;;;36.94;13.15;100374.14;1768856;81;27397;-58
2021/05/16 11:27:31;;;;;;;5.87;0.80;;;;;;;37.26;13.61;100365.89;1697772;83;25791;-58
2021/05/16 11:30:07;;;;;;;1.50;0.75;;;;;;;37.72;14.50;100359.42;1695254;84;25607;-59
2021/05/16 11:32:35;;;;;;;5.70;0.82;;;;;;;38.24;14.95;100356.31;1689340;83;25643;-58